Goodland, Texas
Current Conditions -  °F | °C
As of 4:35 AM on Monday 20 Oct 2014 (Local Time) from KCVN Reporting Station
Clear Clear  
Wind Chill: 50°   Ceiling: Unl
Heat Index: 50°   Visibility: 5mi
Dew Point: 48°   Wind: 7mph
Humidity: 94%   Direction: 290°WNW
Pressure: 30.14"   Gusts: NA
Location:  34.1266°N, 102.525°W
Report Text: KCVN 200935Z AUTO 29006KT 5SM CLR 10/09 A3014 RMK AO1
Loading
Personal Weather Stations






























Interactive Weather Map
Tropical Storm Tracking
New forecast layout! Learn more

10-Day Weather Forecast

Advertisements
Track Severe Weather on mobile